createdAt,value
2018-07-28T00:02:21.564Z,7.17
2018-07-28T00:04:49.009Z,5.63
2018-07-28T00:07:16.440Z,5.30
2018-07-28T00:09:43.878Z,6.43
2018-07-28T00:12:11.322Z,5.63
2018-07-28T00:14:38.817Z,5.77
2018-07-28T00:17:06.231Z,6.57
2018-07-28T00:19:33.668Z,6.30
2018-07-28T00:22:01.099Z,5.57
2018-07-28T00:24:28.759Z,5.93
2018-07-28T00:26:56.255Z,6.83
2018-07-28T00:29:23.678Z,6.20
2018-07-28T00:31:51.137Z,7.17
2018-07-28T00:34:18.561Z,7.13
2018-07-28T00:36:46.003Z,6.97
2018-07-28T00:39:13.924Z,7.50
2018-07-28T00:41:41.664Z,5.80
2018-07-28T00:44:09.190Z,7.13
2018-07-28T00:46:36.622Z,6.37
2018-07-28T00:49:04.853Z,5.77
2018-07-28T00:51:32.415Z,6.10
2018-07-28T00:53:59.872Z,7.23
2018-07-28T00:56:27.296Z,6.13
2018-07-28T00:58:54.718Z,5.73
2018-07-28T01:01:22.143Z,6.17
2018-07-28T01:03:49.648Z,7.57
2018-07-28T01:06:17.039Z,5.67
2018-07-28T01:08:44.489Z,5.70
2018-07-28T01:11:11.895Z,5.60
2018-07-28T01:13:39.312Z,7.10
2018-07-28T01:16:06.777Z,5.73
2018-07-28T01:18:34.233Z,6.03
2018-07-28T01:21:01.717Z,5.67
2018-07-28T01:23:29.172Z,5.70
2018-07-28T01:25:56.617Z,6.27
2018-07-28T01:28:24.075Z,6.53
2018-07-28T01:30:51.532Z,6.13
2018-07-28T01:33:18.924Z,7.57
2018-07-28T01:35:46.322Z,6.53
2018-07-28T01:38:13.772Z,5.60
2018-07-28T01:40:41.167Z,6.00
2018-07-28T01:43:08.585Z,5.63
2018-07-28T01:45:36.006Z,6.00
2018-07-28T01:48:03.424Z,6.80
2018-07-28T01:50:30.873Z,6.10
2018-07-28T01:52:58.285Z,6.83
2018-07-28T01:55:25.684Z,9.23
2018-07-28T01:57:53.357Z,5.67
2018-07-28T02:00:20.783Z,6.17
2018-07-28T02:02:48.202Z,5.77
2018-07-28T02:05:15.645Z,6.03
2018-07-28T02:07:43.130Z,5.57
2018-07-28T02:10:10.550Z,5.57
2018-07-28T02:12:38.310Z,5.90
2018-07-28T02:15:06.356Z,6.90
2018-07-28T02:17:33.796Z,6.97
2018-07-28T02:20:01.220Z,7.67
2018-07-28T02:22:28.692Z,7.53
2018-07-28T02:24:56.129Z,7.47
2018-07-28T02:27:23.553Z,7.87
2018-07-28T02:29:50.955Z,21.47
2018-07-28T02:32:18.447Z,9.43
2018-07-28T02:34:45.873Z,12.00
2018-07-28T02:37:13.308Z,9.97
2018-07-28T02:39:40.732Z,14.40
2018-07-28T02:42:08.168Z,18.33
2018-07-28T02:44:35.523Z,12.07
2018-07-28T02:47:02.991Z,12.63
2018-07-28T02:49:30.415Z,11.77
2018-07-28T02:51:57.820Z,9.53
2018-07-28T02:54:25.212Z,12.17
2018-07-28T02:56:52.619Z,8.97
2018-07-28T02:59:20.055Z,8.17
2018-07-28T03:01:47.444Z,10.20
2018-07-28T03:04:14.906Z,6.00
2018-07-28T03:06:42.317Z,7.90
2018-07-28T03:09:11.011Z,7.13
2018-07-28T03:11:38.879Z,12.47
2018-07-28T03:14:06.659Z,10.07
2018-07-28T03:16:34.089Z,8.43
2018-07-28T03:19:01.504Z,10.10
2018-07-28T03:21:28.948Z,10.03
2018-07-28T03:23:56.374Z,6.70
2018-07-28T03:26:23.798Z,8.20
2018-07-28T03:28:51.238Z,7.03
2018-07-28T03:31:18.591Z,9.63
2018-07-28T03:33:46.011Z,6.97
2018-07-28T03:36:13.433Z,9.23
2018-07-28T03:38:40.884Z,8.67
2018-07-28T03:41:08.312Z,10.63
2018-07-28T03:43:35.721Z,11.20
2018-07-28T03:46:03.132Z,8.30
2018-07-28T03:48:30.583Z,8.00
2018-07-28T03:50:58.040Z,8.37
2018-07-28T03:53:25.486Z,10.53
2018-07-28T03:55:52.921Z,10.10
2018-07-28T03:58:20.314Z,11.47
2018-07-28T04:00:47.795Z,9.20
2018-07-28T04:03:15.207Z,11.97
2018-07-28T04:05:42.627Z,11.33
2018-07-28T04:08:10.034Z,10.33
2018-07-28T04:10:37.439Z,8.63
2018-07-28T04:13:04.859Z,8.43
2018-07-28T04:15:32.277Z,7.83
2018-07-28T04:17:59.670Z,11.47
2018-07-28T04:20:27.287Z,11.67
2018-07-28T04:22:55.034Z,11.17
2018-07-28T04:25:22.894Z,9.17
2018-07-28T04:27:50.563Z,8.70
2018-07-28T04:30:18.003Z,6.03
2018-07-28T04:32:45.382Z,8.13
2018-07-28T04:35:12.842Z,10.47
2018-07-28T04:37:40.274Z,7.60
2018-07-28T04:40:09.999Z,5.90
2018-07-28T04:42:37.392Z,7.87
2018-07-28T04:45:05.002Z,8.17
2018-07-28T04:47:32.465Z,7.63
2018-07-28T04:49:59.855Z,10.40
2018-07-28T04:52:27.208Z,9.93
2018-07-28T04:54:54.858Z,9.00
2018-07-28T04:57:22.386Z,11.07
2018-07-28T04:59:51.970Z,10.17
2018-07-28T05:02:19.390Z,8.13
2018-07-28T05:04:46.794Z,7.17
2018-07-28T05:07:14.195Z,7.00
2018-07-28T05:09:41.583Z,10.03
2018-07-28T05:12:08.988Z,5.80
2018-07-28T05:14:36.382Z,11.40
2018-07-28T05:17:03.847Z,6.97
2018-07-28T05:19:31.306Z,9.47
2018-07-28T05:21:58.702Z,8.27
2018-07-28T05:24:26.110Z,6.57
2018-07-28T05:26:53.499Z,10.10
2018-07-28T05:29:20.859Z,8.20
2018-07-28T05:31:48.251Z,10.27
2018-07-28T05:34:15.644Z,9.07
2018-07-28T05:36:43.006Z,11.13
2018-07-28T05:39:11.623Z,8.00
2018-07-28T05:41:39.283Z,7.53
2018-07-28T05:44:06.768Z,9.73
2018-07-28T05:46:34.202Z,7.17
2018-07-28T05:49:01.608Z,10.53
2018-07-28T05:51:29.105Z,8.07
2018-07-28T05:53:56.570Z,9.13
2018-07-28T05:56:23.992Z,10.03
2018-07-28T05:58:51.565Z,9.73
2018-07-28T06:01:19.020Z,10.77
2018-07-28T06:03:47.311Z,11.87
2018-07-28T06:06:14.776Z,10.70
2018-07-28T06:08:42.334Z,11.43
2018-07-28T06:11:09.881Z,11.00
2018-07-28T06:13:37.298Z,11.80
2018-07-28T06:16:04.934Z,10.67
2018-07-28T06:18:32.326Z,10.40
2018-07-28T06:20:59.786Z,12.27
2018-07-28T06:23:27.263Z,16.73
2018-07-28T06:25:54.897Z,12.70
2018-07-28T06:28:22.311Z,12.83
2018-07-28T06:30:50.579Z,13.37
2018-07-28T06:33:18.912Z,11.90
2018-07-28T06:35:46.391Z,12.00
2018-07-28T06:38:13.811Z,12.37
2018-07-28T06:40:41.203Z,12.33
2018-07-28T06:43:08.696Z,12.10
2018-07-28T06:45:36.090Z,10.13
2018-07-28T06:48:03.589Z,12.67
2018-07-28T06:50:31.043Z,16.70
2018-07-28T06:52:58.463Z,14.80
2018-07-28T06:55:25.895Z,13.47
2018-07-28T06:57:53.283Z,13.80
2018-07-28T07:00:20.663Z,11.20
2018-07-28T07:02:48.044Z,15.37
2018-07-28T07:05:15.578Z,16.03
2018-07-28T07:07:42.981Z,15.50
2018-07-28T07:10:10.592Z,17.40
2018-07-28T07:12:37.983Z,17.00
2018-07-28T07:15:05.595Z,14.13
2018-07-28T07:17:32.999Z,15.70
2018-07-28T07:20:00.404Z,16.37
2018-07-28T07:22:27.836Z,19.03
2018-07-28T07:24:55.294Z,15.13
2018-07-28T07:27:22.666Z,15.27
2018-07-28T07:29:50.039Z,14.27
2018-07-28T07:32:17.456Z,14.43
2018-07-28T07:34:44.798Z,17.27
2018-07-28T07:37:14.047Z,15.73
2018-07-28T07:39:41.898Z,17.83
2018-07-28T07:42:09.306Z,18.43
2018-07-28T07:44:36.923Z,17.83
2018-07-28T07:47:04.298Z,13.47
2018-07-28T07:49:31.691Z,15.67
2018-07-28T07:51:59.098Z,14.67
2018-07-28T07:54:26.478Z,14.70
2018-07-28T07:56:53.866Z,14.40
2018-07-28T07:59:21.272Z,20.40
2018-07-28T08:01:48.657Z,14.90
2018-07-28T08:04:16.031Z,17.80
2018-07-28T08:06:43.436Z,16.87
2018-07-28T08:09:10.849Z,17.60
2018-07-28T08:11:38.290Z,18.47
2018-07-28T08:14:05.779Z,17.00
2018-07-28T08:16:33.311Z,17.17
2018-07-28T08:19:00.726Z,18.73
2018-07-28T08:21:28.115Z,16.33
2018-07-28T08:23:55.511Z,14.73
2018-07-28T08:26:22.896Z,15.60
2018-07-28T08:28:50.319Z,15.77
2018-07-28T08:31:17.704Z,17.33
2018-07-28T08:33:45.084Z,14.37
2018-07-28T08:36:12.467Z,16.80
2018-07-28T08:38:39.861Z,13.87
2018-07-28T08:41:07.290Z,14.00
2018-07-28T08:43:34.714Z,16.73
2018-07-28T08:46:02.096Z,19.67
2018-07-28T08:48:29.455Z,18.40
2018-07-28T08:50:56.823Z,18.17
2018-07-28T08:53:24.214Z,14.37
2018-07-28T08:55:51.588Z,15.30
2018-07-28T08:58:18.958Z,19.27
2018-07-28T09:00:46.338Z,18.50
2018-07-28T09:03:13.718Z,15.67
2018-07-28T09:05:41.228Z,13.13
2018-07-28T09:08:08.639Z,14.17
2018-07-28T09:10:36.067Z,14.73
2018-07-28T09:13:03.434Z,16.77
2018-07-28T09:15:30.859Z,16.87
2018-07-28T09:17:58.312Z,15.23
2018-07-28T09:20:25.632Z,14.17
2018-07-28T09:22:53.055Z,18.63
2018-07-28T09:25:20.464Z,12.70
2018-07-28T09:27:47.834Z,13.23
2018-07-28T09:30:15.214Z,15.73
2018-07-28T09:32:42.637Z,17.27
2018-07-28T09:35:10.084Z,14.10
2018-07-28T09:37:37.544Z,15.53
2018-07-28T09:40:05.209Z,18.20
2018-07-28T09:42:32.610Z,15.00
2018-07-28T09:44:59.987Z,14.93
2018-07-28T09:47:27.398Z,16.33
2018-07-28T09:49:54.913Z,16.70
2018-07-28T09:52:22.316Z,18.27
2018-07-28T09:54:49.693Z,18.53
2018-07-28T09:57:17.111Z,16.47
2018-07-28T09:59:44.454Z,16.07
2018-07-28T10:02:11.872Z,13.37
2018-07-28T10:04:39.266Z,9.87
2018-07-28T10:07:06.865Z,8.77
2018-07-28T10:09:34.296Z,11.17
2018-07-28T10:12:01.721Z,12.43
2018-07-28T10:14:29.130Z,9.40
2018-07-28T10:16:56.532Z,9.97
2018-07-28T10:19:23.898Z,11.83
2018-07-28T10:21:51.296Z,11.53
2018-07-28T10:24:18.680Z,12.27
2018-07-28T10:26:46.043Z,11.17
2018-07-28T10:29:13.443Z,10.97
2018-07-28T10:31:40.851Z,11.87
2018-07-28T10:34:08.218Z,10.00
2018-07-28T10:36:35.666Z,11.37
2018-07-28T10:39:06.046Z,9.57
2018-07-28T10:41:33.479Z,10.63
2018-07-28T10:44:00.852Z,10.57
2018-07-28T10:46:28.231Z,12.87
2018-07-28T10:48:55.620Z,11.00
2018-07-28T10:51:22.989Z,13.18
2018-07-28T10:53:50.352Z,12.05
2018-07-28T10:56:17.720Z,10.23
2018-07-28T10:58:45.099Z,9.63
2018-07-28T11:01:12.523Z,9.03
2018-07-28T11:03:39.871Z,15.47
2018-07-28T11:06:07.568Z,10.83
2018-07-28T11:08:35.223Z,8.90
2018-07-28T11:11:02.652Z,10.73
2018-07-28T11:13:30.041Z,12.07
2018-07-28T11:15:57.463Z,11.80
2018-07-28T11:18:24.822Z,11.00
2018-07-28T11:20:52.579Z,11.97
2018-07-28T11:23:31.566Z,11.12
2018-07-28T11:25:59.046Z,9.43
2018-07-28T11:28:26.387Z,8.55
2018-07-28T11:30:54.448Z,10.10
2018-07-28T11:33:33.517Z,8.20
2018-07-28T11:36:12.512Z,7.70
2018-07-28T11:38:51.556Z,7.40
2018-07-28T11:41:30.518Z,6.67
2018-07-28T11:44:09.475Z,9.63
2018-07-28T11:46:36.873Z,8.53
2018-07-28T11:49:04.562Z,8.53
2018-07-28T11:51:31.967Z,7.90
2018-07-28T11:53:59.379Z,7.33
2018-07-28T11:56:26.819Z,7.08
2018-07-28T11:58:54.211Z,7.75
2018-07-28T12:01:21.642Z,7.75
2018-07-28T12:03:49.004Z,7.62
2018-07-28T12:06:16.420Z,6.87
2018-07-28T12:08:43.832Z,6.92
2018-07-28T12:11:11.339Z,6.85
2018-07-28T12:13:38.715Z,7.45
2018-07-28T12:16:06.235Z,7.05
2018-07-28T12:18:33.653Z,7.90
2018-07-28T12:21:01.045Z,6.72
2018-07-28T12:23:28.627Z,8.55
2018-07-28T12:25:56.009Z,6.53
2018-07-28T12:28:23.392Z,6.50
2018-07-28T12:30:50.838Z,5.55
2018-07-28T12:33:18.169Z,5.35
2018-07-28T12:35:45.558Z,5.25
2018-07-28T12:38:12.955Z,5.53
2018-07-28T12:40:40.342Z,4.37
2018-07-28T12:43:07.771Z,4.55
2018-07-28T12:45:35.452Z,4.10
2018-07-28T12:48:02.835Z,4.62
2018-07-28T12:50:30.224Z,5.58
2018-07-28T12:52:57.625Z,4.67
2018-07-28T12:55:25.138Z,4.15
2018-07-28T12:57:52.458Z,5.60
2018-07-28T13:00:19.831Z,5.35
2018-07-28T13:02:47.278Z,6.17
2018-07-28T13:05:14.688Z,4.50
2018-07-28T13:07:42.065Z,4.75
2018-07-28T13:10:09.511Z,5.07
2018-07-28T13:12:37.255Z,5.60
2018-07-28T13:15:04.963Z,4.80
2018-07-28T13:17:32.570Z,4.77
2018-07-28T13:19:59.979Z,3.90
2018-07-28T13:22:27.416Z,4.07
2018-07-28T13:24:54.803Z,3.60
2018-07-28T13:27:22.186Z,5.13
2018-07-28T13:29:49.618Z,4.00
2018-07-28T13:32:16.976Z,4.37
2018-07-28T13:34:44.368Z,4.93
2018-07-28T13:37:11.754Z,4.73
2018-07-28T13:39:39.122Z,5.60
2018-07-28T13:42:06.619Z,6.80
2018-07-28T13:44:34.013Z,6.27
2018-07-28T13:47:01.409Z,6.43
2018-07-28T13:49:28.783Z,5.97
2018-07-28T13:51:56.171Z,6.47
2018-07-28T13:54:23.545Z,6.17
2018-07-28T13:56:50.939Z,7.03
2018-07-28T13:59:18.324Z,6.28
2018-07-28T14:01:45.684Z,5.95
2018-07-28T14:04:13.075Z,7.00
2018-07-28T14:06:40.468Z,6.25
2018-07-28T14:09:08.938Z,8.45
2018-07-28T14:11:36.339Z,7.97
2018-07-28T14:14:03.846Z,8.68
2018-07-28T14:16:31.222Z,6.58
2018-07-28T14:18:58.635Z,7.30
2018-07-28T14:21:26.031Z,6.60
2018-07-28T14:23:53.436Z,6.95
2018-07-28T14:26:20.842Z,8.18
2018-07-28T14:28:48.271Z,6.28
2018-07-28T14:31:15.680Z,6.58
2018-07-28T14:33:43.061Z,9.10
2018-07-28T14:36:10.461Z,7.15
2018-07-28T14:38:37.833Z,7.80
2018-07-28T14:41:05.390Z,10.63
2018-07-28T14:43:32.760Z,10.23
2018-07-28T14:46:00.136Z,7.08
2018-07-28T14:48:27.503Z,10.40
2018-07-28T14:50:54.884Z,8.58
2018-07-28T14:53:22.309Z,8.68
2018-07-28T14:55:49.679Z,7.05
2018-07-28T14:58:17.071Z,8.10
2018-07-28T15:00:44.439Z,9.75
2018-07-28T15:03:11.793Z,6.93
2018-07-28T15:05:39.195Z,5.93
2018-07-28T15:08:06.688Z,7.63
2018-07-28T15:10:34.098Z,5.22
2018-07-28T15:13:01.521Z,8.13
2018-07-28T15:15:28.963Z,7.10
2018-07-28T15:17:56.366Z,7.23
2018-07-28T15:20:23.727Z,6.73
2018-07-28T15:22:51.191Z,6.40
2018-07-28T15:25:18.601Z,7.00
2018-07-28T15:27:45.986Z,5.37
2018-07-28T15:30:13.488Z,7.50
2018-07-28T15:32:40.847Z,7.15
2018-07-28T15:35:08.315Z,4.47
2018-07-28T15:37:35.680Z,4.78
2018-07-28T15:40:03.155Z,4.47
2018-07-28T15:42:30.574Z,5.55
2018-07-28T15:44:57.960Z,3.40
2018-07-28T15:47:25.351Z,3.72
2018-07-28T15:49:52.714Z,3.98
2018-07-28T15:52:20.101Z,3.70
2018-07-28T15:54:47.502Z,2.62
2018-07-28T15:57:14.867Z,2.55
2018-07-28T15:59:42.358Z,2.70
2018-07-28T16:02:09.722Z,3.55
2018-07-28T16:04:37.091Z,5.25
2018-07-28T16:07:04.487Z,4.12
2018-07-28T16:09:31.847Z,2.80
2018-07-28T16:11:59.207Z,4.17
2018-07-28T16:14:26.565Z,4.22
2018-07-28T16:16:53.950Z,7.10
2018-07-28T16:19:21.326Z,3.47
2018-07-28T16:21:48.952Z,6.12
2018-07-28T16:24:16.312Z,3.95
2018-07-28T16:26:43.668Z,8.50
2018-07-28T16:29:11.061Z,3.75
2018-07-28T16:31:38.450Z,7.75
2018-07-28T16:34:05.828Z,8.25
2018-07-28T16:36:33.179Z,6.53
2018-07-28T16:39:00.599Z,9.33
2018-07-28T16:41:27.987Z,7.05
2018-07-28T16:43:55.361Z,9.38
2018-07-28T16:46:22.726Z,7.78
2018-07-28T16:48:50.093Z,9.73
2018-07-28T16:51:17.483Z,6.55
2018-07-28T16:53:44.885Z,8.85
2018-07-28T16:56:12.267Z,7.03
2018-07-28T16:58:39.641Z,6.30
2018-07-28T17:01:07.090Z,7.87
2018-07-28T17:03:34.450Z,10.63
2018-07-28T17:06:01.803Z,9.47
2018-07-28T17:08:29.176Z,8.95
2018-07-28T17:10:56.567Z,10.90
2018-07-28T17:13:23.944Z,8.23
2018-07-28T17:15:51.343Z,10.93
2018-07-28T17:18:18.737Z,7.60
2018-07-28T17:20:46.119Z,6.30
2018-07-28T17:23:13.504Z,8.13
2018-07-28T17:25:40.855Z,8.93
2018-07-28T17:28:08.279Z,9.50
2018-07-28T17:30:35.682Z,6.27
2018-07-28T17:33:03.048Z,7.23
2018-07-28T17:35:30.415Z,6.80
2018-07-28T17:37:57.762Z,8.73
2018-07-28T17:40:25.167Z,7.43
2018-07-28T17:42:52.587Z,9.63
2018-07-28T17:45:19.935Z,9.33
2018-07-28T17:47:47.353Z,9.20
2018-07-28T17:50:14.789Z,6.30
2018-07-28T17:52:42.170Z,10.90
2018-07-28T17:55:09.542Z,5.97
2018-07-28T17:57:36.951Z,9.17
2018-07-28T18:00:05.947Z,8.40
2018-07-28T18:02:33.212Z,11.80
2018-07-28T18:05:00.640Z,7.47
2018-07-28T18:07:28.052Z,9.87
2018-07-28T18:09:55.384Z,10.53
2018-07-28T18:12:22.807Z,6.57
2018-07-28T18:14:50.191Z,7.87
2018-07-28T18:17:17.607Z,4.13
2018-07-28T18:19:44.980Z,6.27
2018-07-28T18:22:12.363Z,8.17
2018-07-28T18:24:39.735Z,6.07
2018-07-28T18:27:07.113Z,7.83
2018-07-28T18:29:34.494Z,4.47
2018-07-28T18:32:01.872Z,6.63
2018-07-28T18:34:29.324Z,7.45
2018-07-28T18:36:56.803Z,6.60
2018-07-28T18:39:24.208Z,4.23
2018-07-28T18:41:51.591Z,6.55
2018-07-28T18:44:18.947Z,4.23
2018-07-28T18:46:46.359Z,6.13
2018-07-28T18:49:13.732Z,6.10
2018-07-28T18:51:41.196Z,6.23
2018-07-28T18:54:08.591Z,5.97
2018-07-28T18:56:36.027Z,6.37
2018-07-28T18:59:03.508Z,6.00
2018-07-28T19:01:30.907Z,5.33
2018-07-28T19:03:58.271Z,5.40
2018-07-28T19:06:25.615Z,5.57
2018-07-28T19:08:58.813Z,4.70
2018-07-28T19:11:26.225Z,4.73
2018-07-28T19:13:59.320Z,6.53
2018-07-28T19:16:26.782Z,6.13
2018-07-28T19:19:00.282Z,5.30
2018-07-28T19:21:27.647Z,4.53
2018-07-28T19:24:01.143Z,6.07
2018-07-28T19:26:29.084Z,4.77
2018-07-28T19:29:02.121Z,4.93
2018-07-28T19:31:29.727Z,6.07
2018-07-28T19:33:57.405Z,3.90
2018-07-28T19:36:30.629Z,2.47
2018-07-28T19:38:57.988Z,5.77
2018-07-28T19:41:25.371Z,4.03
2018-07-28T19:43:52.862Z,4.93
2018-07-28T19:46:20.289Z,4.67
2018-07-28T19:48:47.681Z,6.43
2018-07-28T19:51:15.068Z,4.53
2018-07-28T19:53:42.410Z,5.43
2018-07-28T19:56:09.784Z,5.33
2018-07-28T19:58:37.156Z,5.53
2018-07-28T20:01:04.744Z,5.77
2018-07-28T20:03:32.115Z,3.60
2018-07-28T20:05:59.460Z,5.30
2018-07-28T20:08:26.835Z,4.07
2018-07-28T20:10:54.220Z,5.67
2018-07-28T20:13:21.579Z,6.43
2018-07-28T20:15:48.975Z,5.50
2018-07-28T20:18:16.336Z,3.93
2018-07-28T20:20:43.743Z,5.07
2018-07-28T20:23:11.140Z,6.60
2018-07-28T20:25:38.605Z,3.20
2018-07-28T20:28:05.995Z,5.67
2018-07-28T20:30:33.716Z,9.73
2018-07-28T20:33:01.285Z,9.27
2018-07-28T20:35:28.722Z,4.20
2018-07-28T20:37:56.079Z,5.33
2018-07-28T20:40:23.472Z,7.47
2018-07-28T20:42:50.851Z,5.10
2018-07-28T20:45:18.225Z,5.00
2018-07-28T20:47:45.596Z,6.33
2018-07-28T20:50:13.033Z,6.77
2018-07-28T20:52:40.464Z,6.80
2018-07-28T20:55:07.896Z,6.30
2018-07-28T20:57:35.299Z,4.77
2018-07-28T21:00:02.759Z,8.10
2018-07-28T21:02:30.116Z,7.07
2018-07-28T21:04:57.499Z,4.80
2018-07-28T21:07:24.921Z,5.77
2018-07-28T21:09:52.506Z,7.53
2018-07-28T21:12:20.062Z,3.43
2018-07-28T21:14:47.535Z,5.03
2018-07-28T21:17:14.843Z,3.87
2018-07-28T21:19:42.217Z,4.20
2018-07-28T21:22:09.786Z,5.40
2018-07-28T21:24:37.183Z,5.73
2018-07-28T21:27:04.716Z,6.83
2018-07-28T21:29:32.111Z,7.50
2018-07-28T21:31:59.484Z,4.07
2018-07-28T21:34:26.878Z,5.23
2018-07-28T21:36:54.271Z,4.13
2018-07-28T21:39:21.626Z,8.33
2018-07-28T21:41:49.024Z,4.50
2018-07-28T21:44:16.438Z,6.63
2018-07-28T21:46:43.826Z,6.13
2018-07-28T21:49:11.215Z,5.13
2018-07-28T21:51:38.618Z,4.57
2018-07-28T21:54:06.004Z,3.70
2018-07-28T21:56:33.363Z,6.17
2018-07-28T21:59:00.734Z,3.43
2018-07-28T22:01:28.144Z,5.77
2018-07-28T22:03:55.524Z,6.80
2018-07-28T22:06:22.894Z,6.57
2018-07-28T22:08:50.309Z,4.87
2018-07-28T22:11:17.744Z,5.57
2018-07-28T22:13:45.151Z,5.67
2018-07-28T22:16:12.696Z,3.87
2018-07-28T22:18:40.171Z,5.17
2018-07-28T22:21:07.591Z,4.00
2018-07-28T22:23:35.002Z,4.57
2018-07-28T22:26:02.359Z,4.23
2018-07-28T22:28:29.812Z,8.03
2018-07-28T22:30:57.232Z,5.03
2018-07-28T22:33:24.594Z,7.30
2018-07-28T22:35:51.995Z,6.40
2018-07-28T22:38:19.466Z,4.87
2018-07-28T22:40:46.831Z,4.97
2018-07-28T22:43:14.198Z,5.83
2018-07-28T22:45:41.582Z,3.80
2018-07-28T22:48:08.928Z,4.10
2018-07-28T22:50:36.278Z,9.27
2018-07-28T22:53:03.676Z,4.10
2018-07-28T22:55:31.105Z,3.83
2018-07-28T22:57:58.522Z,7.00
2018-07-28T23:00:25.915Z,6.27
2018-07-28T23:02:53.303Z,5.03
2018-07-28T23:05:20.692Z,4.93
2018-07-28T23:07:48.064Z,4.40
2018-07-28T23:10:15.448Z,3.83
2018-07-28T23:12:42.872Z,4.57
2018-07-28T23:15:10.291Z,4.70
2018-07-28T23:17:37.919Z,4.67
2018-07-28T23:20:05.984Z,8.17
2018-07-28T23:22:33.348Z,4.70
2018-07-28T23:25:00.717Z,5.37
2018-07-28T23:27:28.116Z,4.53
2018-07-28T23:29:55.491Z,6.37
2018-07-28T23:32:22.867Z,4.57
2018-07-28T23:34:50.208Z,3.40
2018-07-28T23:37:17.595Z,4.87
2018-07-28T23:39:44.961Z,4.27
2018-07-28T23:42:12.353Z,4.73
2018-07-28T23:44:39.805Z,5.97
2018-07-28T23:47:07.190Z,4.10
2018-07-28T23:49:35.383Z,5.43
2018-07-28T23:52:02.809Z,3.53
2018-07-28T23:54:30.221Z,4.27
2018-07-28T23:56:57.599Z,6.00
2018-07-28T23:59:24.975Z,3.87
